Time,TemperatureF,DewpointF,PressureIn,WindDirection,WindDirectionDegrees,WindSpeedMPH,WindSpeedGustMPH,Humidity,HourlyPrecipIn,Conditions,Clouds,dailyrainin,SoftwareType,DateUTC
2017-12-17 00:00:00,39.9,32.4,30.21,SSE,158,0.9,1.0,74,0.00,,,0.00,meteobridge,2017-12-17 05:00:00,
2017-12-17 00:02:00,39.9,32.4,30.22,SSE,148,0.0,1.0,74,0.00,,,0.00,meteobridge,2017-12-17 05:02:00,
2017-12-17 00:07:00,39.9,32.4,30.22,SE,132,0.9,2.0,74,0.00,,,0.00,meteobridge,2017-12-17 05:07:00,
2017-12-17 00:12:00,39.7,32.2,30.21,SE,124,2.0,2.0,74,0.00,,,0.00,meteobridge,2017-12-17 05:12:00,
2017-12-17 00:16:00,39.7,32.5,30.21,ESE,123,0.9,2.0,75,0.00,,,0.00,meteobridge,2017-12-17 05:16:00,
2017-12-17 00:18:00,39.7,32.5,30.21,ESE,112,0.9,2.0,75,0.00,,,0.00,meteobridge,2017-12-17 05:18:00,
2017-12-17 00:22:00,39.7,32.5,30.22,SE,136,0.9,1.0,75,0.00,,,0.00,meteobridge,2017-12-17 05:22:00,
2017-12-17 00:27:00,39.6,32.4,30.21,SSE,157,2.0,2.0,75,0.00,,,0.00,meteobridge,2017-12-17 05:27:00,
2017-12-17 00:31:00,39.6,32.4,30.21,SSE,150,0.9,2.0,75,0.00,,,0.00,meteobridge,2017-12-17 05:31:00,
2017-12-17 00:36:00,39.4,32.2,30.21,SSE,148,0.9,1.0,75,0.00,,,0.00,meteobridge,2017-12-17 05:36:00,
2017-12-17 00:39:00,39.2,32.0,30.21,SE,139,0.0,2.0,75,0.00,,,0.00,meteobridge,2017-12-17 05:39:00,
2017-12-17 00:44:00,38.8,32.0,30.21,SE,137,0.0,1.0,76,0.00,,,0.00,meteobridge,2017-12-17 05:44:00,
2017-12-17 00:47:00,38.8,32.0,30.21,SE,139,0.0,1.0,76,0.00,,,0.00,meteobridge,2017-12-17 05:47:00,
2017-12-17 00:52:00,38.7,32.0,30.21,SE,142,0.0,1.0,77,0.00,,,0.00,meteobridge,2017-12-17 05:52:00,
2017-12-17 00:55:00,38.7,32.0,30.21,SE,140,0.0,1.0,77,0.00,,,0.00,meteobridge,2017-12-17 05:55:00,
2017-12-17 00:59:00,38.5,31.8,30.21,SE,138,0.0,0.0,77,0.00,,,0.00,meteobridge,2017-12-17 05:59:00,
2017-12-17 01:03:00,38.5,31.8,30.21,SE,139,0.0,1.0,77,0.00,,,0.00,meteobridge,2017-12-17 06:03:00,
2017-12-17 01:08:00,38.5,31.8,30.21,SSE,148,0.0,2.0,77,0.00,,,0.00,meteobridge,2017-12-17 06:08:00,
2017-12-17 01:09:00,38.5,31.8,30.20,SSE,148,0.0,0.0,77,0.00,,,0.00,meteobridge,2017-12-17 06:09:00,
2017-12-17 01:14:00,38.3,31.6,30.20,SE,145,0.0,1.0,77,0.00,,,0.00,meteobridge,2017-12-17 06:14:00,
2017-12-17 01:19:00,38.3,32.0,30.20,SSE,167,0.9,2.0,78,0.00,,,0.00,meteobridge,2017-12-17 06:19:00,
2017-12-17 01:21:00,38.3,32.0,30.20,SE,139,0.0,2.0,78,0.00,,,0.00,meteobridge,2017-12-17 06:21:00,
2017-12-17 01:26:00,38.3,32.0,30.19,SSE,162,0.0,2.0,78,0.00,,,0.00,meteobridge,2017-12-17 06:26:00,
2017-12-17 01:27:00,38.3,32.0,30.19,SE,146,0.0,1.0,78,0.00,,,0.00,meteobridge,2017-12-17 06:27:00,
2017-12-17 01:31:00,38.1,31.8,30.19,SE,132,0.9,1.0,78,0.00,,,0.00,meteobridge,2017-12-17 06:31:00,
2017-12-17 01:36:00,38.1,31.8,30.19,SE,131,0.0,2.0,78,0.00,,,0.00,meteobridge,2017-12-17 06:36:00,
2017-12-17 01:41:00,38.1,31.8,30.19,SSE,148,0.9,1.0,78,0.00,,,0.00,meteobridge,2017-12-17 06:41:00,
2017-12-17 01:42:00,38.1,31.8,30.19,SE,139,0.0,2.0,78,0.00,,,0.00,meteobridge,2017-12-17 06:42:00,
2017-12-17 01:47:00,37.9,31.6,30.19,SE,146,0.0,1.0,78,0.00,,,0.00,meteobridge,2017-12-17 06:47:00,
2017-12-17 01:50:00,37.9,31.6,30.20,SSE,148,0.0,0.0,78,0.00,,,0.00,meteobridge,2017-12-17 06:50:00,
2017-12-17 01:56:00,37.8,31.8,30.20,SSE,159,0.9,2.0,79,0.00,,,0.00,meteobridge,2017-12-17 06:56:00,
2017-12-17 01:58:00,37.8,31.8,30.20,SSE,149,2.0,3.0,79,0.00,,,0.00,meteobridge,2017-12-17 06:58:00,
2017-12-17 02:01:00,37.8,31.8,30.19,SSE,157,0.0,2.0,79,0.00,,,0.00,meteobridge,2017-12-17 07:01:00,
2017-12-17 02:05:00,37.8,31.8,30.19,SSE,158,0.0,2.0,79,0.00,,,0.00,meteobridge,2017-12-17 07:05:00,
2017-12-17 02:06:00,37.8,31.8,30.20,ESE,112,2.9,3.0,79,0.00,,,0.00,meteobridge,2017-12-17 07:06:00,
2017-12-17 02:11:00,37.9,32.0,30.19,SSE,148,2.0,3.0,79,0.00,,,0.00,meteobridge,2017-12-17 07:11:00,
2017-12-17 02:14:00,37.9,32.0,30.19,SSW,192,0.0,3.0,79,0.00,,,0.00,meteobridge,2017-12-17 07:14:00,
2017-12-17 02:19:00,37.9,32.0,30.18,SE,137,0.9,2.0,79,0.00,,,0.00,meteobridge,2017-12-17 07:19:00,
2017-12-17 02:20:00,37.9,32.0,30.18,SSE,157,0.9,2.0,79,0.00,,,0.00,meteobridge,2017-12-17 07:20:00,
2017-12-17 02:25:00,37.8,31.8,30.18,SSW,193,0.0,1.0,79,0.00,,,0.00,meteobridge,2017-12-17 07:25:00,
2017-12-17 02:27:00,37.8,31.8,30.18,SE,132,0.0,1.0,79,0.00,,,0.00,meteobridge,2017-12-17 07:27:00,
2017-12-17 02:28:00,37.8,31.8,30.18,SE,141,0.9,2.0,79,0.00,,,0.00,meteobridge,2017-12-17 07:28:00,
2017-12-17 02:33:00,37.9,32.0,30.19,SSE,158,0.0,2.0,79,0.00,,,0.00,meteobridge,2017-12-17 07:33:00,
2017-12-17 02:35:00,37.9,32.0,30.19,SSE,156,0.0,0.0,79,0.00,,,0.00,meteobridge,2017-12-17 07:35:00,
2017-12-17 02:40:00,37.9,32.0,30.20,South,190,0.0,2.0,79,0.00,,,0.00,meteobridge,2017-12-17 07:40:00,
2017-12-17 02:45:00,37.9,32.0,30.19,SSE,147,0.9,4.0,79,0.00,,,0.00,meteobridge,2017-12-17 07:45:00,
2017-12-17 02:46:00,37.9,32.0,30.19,SE,136,0.9,2.0,79,0.00,,,0.00,meteobridge,2017-12-17 07:46:00,
2017-12-17 02:48:00,37.9,32.0,30.19,SSE,162,2.0,3.0,79,0.00,,,0.00,meteobridge,2017-12-17 07:48:00,
2017-12-17 02:52:00,38.1,32.2,30.20,SE,144,4.0,4.0,79,0.00,,,0.00,meteobridge,2017-12-17 07:52:00,
2017-12-17 02:57:00,38.1,32.2,30.20,SE,132,2.0,5.0,79,0.00,,,0.00,meteobridge,2017-12-17 07:57:00,
2017-12-17 03:02:00,38.1,32.2,30.20,SE,136,2.0,3.0,79,0.00,,,0.00,meteobridge,2017-12-17 08:02:00,
2017-12-17 03:04:00,38.1,31.8,30.20,SSE,149,0.9,3.0,78,0.00,,,0.00,meteobridge,2017-12-17 08:04:00,
2017-12-17 03:09:00,38.3,32.0,30.20,SE,140,2.0,4.0,78,0.00,,,0.00,meteobridge,2017-12-17 08:09:00,
2017-12-17 03:14:00,38.1,31.8,30.20,SSW,204,2.0,3.0,78,0.00,,,0.00,meteobridge,2017-12-17 08:14:00,
2017-12-17 03:16:00,38.1,31.8,30.20,SSW,195,0.0,3.0,78,0.00,,,0.00,meteobridge,2017-12-17 08:16:00,
2017-12-17 03:21:00,38.1,31.8,30.21,SE,139,0.9,1.0,78,0.00,,,0.00,meteobridge,2017-12-17 08:21:00,
2017-12-17 03:23:00,37.9,31.6,30.21,SE,134,0.0,3.0,78,0.00,,,0.00,meteobridge,2017-12-17 08:23:00,